Time;durP1;ratioP1;P1;durP2;ratioP2;P2;SDS_P1;SDS_P2;PMS_P1;PMS_P2;Temp;Humidity;BMP_temperature;BMP_pressure;BME280_temperature;BME280_humidity;BME280_pressure;Samples;Min_cycle;Max_cycle;Signal;HPM_P1;HPM_P2
2021/05/06 00:36:32;;;;;;;1.83;0.90;;;5.90;99.90;;;;;;6770464;87;20340;-76
2021/05/06 00:56:59;;;;;;;3.65;1.00;;;5.80;99.90;;;;;;6774413;87;20176;-76
2021/05/06 01:17:12;;;;;;;2.20;1.00;;;5.50;99.90;;;;;;6770829;87;20197;-76
2021/05/06 01:27:17;;;;;;;2.75;1.08;;;5.50;99.90;;;;;;6771399;87;20224;-76
2021/05/06 01:37:33;;;;;;;2.20;1.00;;;5.50;99.90;;;;;;6770293;87;20197;-76
2021/05/06 01:47:56;;;;;;;1.67;0.80;;;5.60;99.90;;;;;;6772713;87;20179;-77
2021/05/06 02:08:16;;;;;;;4.65;0.70;;;5.40;99.90;;;;;;6774434;87;20212;-76
2021/05/06 02:18:18;;;;;;;5.40;1.00;;;5.50;99.90;;;;;;6775035;87;20309;-75
2021/05/06 02:28:18;;;;;;;2.50;1.00;;;5.30;99.90;;;;;;6773408;87;20246;-75
2021/05/06 02:38:19;;;;;;;2.37;0.80;;;5.30;99.90;;;;;;6773995;87;20209;-77
2021/05/06 02:48:19;;;;;;;4.05;1.08;;;5.30;99.90;;;;;;6770136;87;20326;-76
2021/05/06 03:08:30;;;;;;;2.85;1.10;;;5.20;99.90;;;;;;6772025;87;20226;-77
2021/05/06 03:28:54;;;;;;;1.90;0.82;;;5.10;99.90;;;;;;6774796;87;21068;-76
2021/05/06 03:49:51;;;;;;;4.45;1.30;;;5.00;99.90;;;;;;6771578;87;20673;-75
2021/05/06 04:41:17;;;;;;;2.58;1.20;;;5.00;99.90;;;;;;6773924;87;20302;-77
2021/05/06 05:32:28;;;;;;;5.00;1.35;;;6.00;99.90;;;;;;6759316;88;20675;-75
2021/05/06 06:02:49;;;;;;;4.30;1.20;;;6.60;99.90;;;;;;6760686;87;20634;-76
2021/05/06 06:12:50;;;;;;;5.43;1.25;;;6.90;99.90;;;;;;6760758;87;20193;-76
2021/05/06 06:22:51;;;;;;;5.95;1.05;;;7.40;99.90;;;;;;6779654;87;20211;-78
2021/05/06 06:32:53;;;;;;;4.03;1.25;;;7.70;99.90;;;;;;6774989;87;21852;-76
2021/05/06 06:42:53;;;;;;;3.65;1.37;;;8.00;99.90;;;;;;6756559;87;20761;-76
2021/05/06 06:52:54;;;;;;;4.03;1.30;;;8.60;99.90;;;;;;6755497;87;20192;-76
2021/05/06 07:02:54;;;;;;;3.78;1.15;;;8.90;99.90;;;;;;6758913;87;20680;-79
2021/05/06 07:12:55;;;;;;;4.32;0.68;;;9.50;99.90;;;;;;6754367;87;20681;-76
2021/05/06 07:22:56;;;;;;;5.53;0.90;;;9.80;99.90;;;;;;6758800;87;20727;-77
2021/05/06 07:32:56;;;;;;;3.63;0.90;;;9.70;99.90;;;;;;6757757;87;20200;-76
2021/05/06 07:42:57;;;;;;;3.15;1.00;;;10.00;99.90;;;;;;6753336;87;20536;-76
2021/05/06 07:53:12;;;;;;;1.45;0.52;;;10.70;99.90;;;;;;6758284;87;20873;-76
2021/05/06 08:03:13;;;;;;;3.42;0.90;;;10.30;99.90;;;;;;6757205;87;20180;-77
2021/05/06 08:13:13;;;;;;;4.87;1.00;;;11.50;99.90;;;;;;6756892;87;20172;-77
2021/05/06 08:23:14;;;;;;;5.43;0.85;;;10.80;99.90;;;;;;6756631;88;20199;-77
2021/05/06 08:33:14;;;;;;;2.90;0.77;;;11.70;99.90;;;;;;6757506;87;20200;-76
2021/05/06 08:43:15;;;;;;;2.10;0.60;;;12.10;98.30;;;;;;6760645;87;20508;-76
2021/05/06 08:53:17;;;;;;;3.33;0.98;;;11.40;97.90;;;;;;6756007;88;20320;-76
2021/05/06 09:03:18;;;;;;;3.92;0.90;;;12.50;95.20;;;;;;6755723;88;20180;-77
2021/05/06 09:13:28;;;;;;;4.80;0.80;;;13.50;94.30;;;;;;6757396;88;20188;-78
2021/05/06 09:23:28;;;;;;;3.97;1.00;;;14.10;90.90;;;;;;6759465;88;20196;-76
2021/05/06 09:33:40;;;;;;;4.37;0.88;;;13.40;90.70;;;;;;6762712;87;20203;-78
2021/05/06 09:43:42;;;;;;;4.35;0.90;;;14.70;86.30;;;;;;6757475;88;20712;-79
2021/05/06 09:53:43;;;;;;;3.12;0.93;;;14.10;84.60;;;;;;6754084;88;20210;-79
2021/05/06 10:03:44;;;;;;;2.87;0.75;;;15.60;77.30;;;;;;6755902;88;20203;-76
2021/05/06 10:13:47;;;;;;;3.60;0.90;;;16.60;75.80;;;;;;6753374;88;20213;-79
2021/05/06 10:23:52;;;;;;;3.40;0.88;;;15.40;74.60;;;;;;6755034;87;20172;-77
2021/05/06 10:33:54;;;;;;;2.72;0.95;;;14.40;73.80;;;;;;6765897;87;20201;-77
2021/05/06 10:43:58;;;;;;;3.00;0.80;;;13.60;74.30;;;;;;6776919;87;20203;-77
2021/05/06 10:53:58;;;;;;;2.30;0.80;;;13.40;76.80;;;;;;6774670;87;20308;-77
2021/05/06 11:04:06;;;;;;;4.40;0.98;;;13.20;74.80;;;;;;6777599;87;20184;-76
2021/05/06 11:14:10;;;;;;;2.47;0.70;;;13.20;79.60;;;;;;6776534;87;20679;-77
2021/05/06 11:24:12;;;;;;;3.28;0.80;;;14.50;76.00;;;;;;6770915;87;20207;-76
2021/05/06 11:34:52;;;;;;;1.85;0.73;;;16.10;70.60;;;;;;6772085;87;20214;-78
2021/05/06 11:45:20;;;;;;;2.90;0.82;;;17.30;64.80;;;;;;6717600;87;20213;-78
2021/05/06 11:55:40;;;;;;;2.90;0.90;;;16.40;66.80;;;;;;6771618;87;20205;-78
2021/05/06 12:05:57;;;;;;;2.47;0.93;;;16.50;65.30;;;;;;6767003;87;20699;-77
2021/05/06 12:16:15;;;;;;;2.70;0.90;;;16.60;65.60;;;;;;6765971;87;20224;-76
2021/05/06 12:26:17;;;;;;;4.78;1.20;;;15.30;67.90;;;;;;6742867;85;22295;-77
2021/05/06 12:36:18;;;;;;;2.30;0.82;;;14.10;70.00;;;;;;6730966;88;20193;-77
2021/05/06 12:46:25;;;;;;;2.12;1.00;;;13.90;72.00;;;;;;6735332;88;20216;-76
2021/05/06 12:56:28;;;;;;;2.00;1.02;;;13.90;74.60;;;;;;6734160;88;20194;-78
2021/05/06 13:06:34;;;;;;;4.20;1.10;;;14.40;72.90;;;;;;6732620;88;20185;-78
2021/05/06 13:16:39;;;;;;;3.25;1.08;;;14.30;71.20;;;;;;6737083;88;20206;-77
2021/05/06 13:26:42;;;;;;;3.07;1.10;;;14.60;72.60;;;;;;6733935;88;20575;-78
2021/05/06 13:37:12;;;;;;;3.42;1.40;;;13.70;74.70;;;;;;6729010;88;20727;-79
2021/05/06 13:47:12;;;;;;;1.95;1.00;;;13.10;77.40;;;;;;6735792;88;20235;-77
2021/05/06 13:57:13;;;;;;;3.05;1.40;;;13.30;77.30;;;;;;6737772;88;20232;-78
2021/05/06 14:07:14;;;;;;;2.58;1.10;;;12.80;82.40;;;;;;6747776;88;20334;-77
2021/05/06 14:17:14;;;;;;;4.82;1.62;;;12.40;91.20;;;;;;6740829;88;22039;-76
2021/05/06 14:27:15;;;;;;;5.32;1.55;;;12.00;95.00;;;;;;6747153;88;20182;-77
2021/05/06 14:37:15;;;;;;;6.12;1.70;;;12.10;96.20;;;;;;6740341;88;20211;-76
2021/05/06 14:47:16;;;;;;;2.87;1.65;;;12.00;97.30;;;;;;6736716;88;20619;-78
2021/05/06 14:57:16;;;;;;;4.40;1.50;;;11.40;99.90;;;;;;6736798;88;20517;-76
2021/05/06 15:07:17;;;;;;;6.85;1.83;;;11.30;99.90;;;;;;6738161;88;20706;-77
2021/05/06 15:17:17;;;;;;;5.68;1.83;;;10.90;99.90;;;;;;6740212;88;20360;-76
2021/05/06 15:27:18;;;;;;;3.20;1.70;;;10.40;99.90;;;;;;6739229;88;20209;-78
2021/05/06 15:37:19;;;;;;;4.90;2.00;;;10.10;99.90;;;;;;6731085;88;20631;-78
2021/05/06 15:47:19;;;;;;;6.78;2.12;;;9.90;99.90;;;;;;6734857;88;20211;-77
2021/05/06 15:57:20;;;;;;;4.15;2.37;;;9.50;99.90;;;;;;6737866;88;20327;-75
2021/05/06 16:07:20;;;;;;;3.60;1.95;;;9.10;99.90;;;;;;6733742;88;20213;-76
2021/05/06 16:17:21;;;;;;;4.32;2.37;;;8.90;99.90;;;;;;6739171;88;20228;-77
2021/05/06 16:27:21;;;;;;;3.70;2.28;;;8.80;99.90;;;;;;6734716;88;20695;-77
2021/05/06 16:37:29;;;;;;;3.75;2.00;;;8.80;99.90;;;;;;6735845;88;20714;-76
2021/05/06 16:47:29;;;;;;;6.43;2.45;;;8.70;99.90;;;;;;6730416;88;20210;-75
2021/05/06 16:57:30;;;;;;;4.47;2.50;;;8.50;99.90;;;;;;6736770;88;20192;-74
2021/05/06 17:07:30;;;;;;;5.43;2.75;;;8.60;99.90;;;;;;6735147;88;20231;-74
2021/05/06 17:17:31;;;;;;;6.05;2.25;;;8.70;99.90;;;;;;6704998;88;20219;-78
2021/05/06 17:27:31;;;;;;;5.15;2.20;;;8.60;99.90;;;;;;6727206;88;20213;-74
2021/05/06 17:37:32;;;;;;;5.15;2.35;;;8.50;99.90;;;;;;6744617;88;20210;-76
2021/05/06 17:47:33;;;;;;;4.15;2.25;;;8.50;99.90;;;;;;6742463;88;20180;-77
2021/05/06 17:57:34;;;;;;;5.70;3.25;;;8.50;99.90;;;;;;6740421;88;20297;-79
2021/05/06 18:07:35;;;;;;;5.00;2.58;;;8.40;99.90;;;;;;6737239;88;20211;-77
2021/05/06 18:17:36;;;;;;;5.18;2.75;;;8.30;99.90;;;;;;6738514;88;20227;-77
2021/05/06 18:27:36;;;;;;;4.37;2.60;;;8.10;99.90;;;;;;6736177;88;20192;-75
2021/05/06 18:37:37;;;;;;;5.53;3.00;;;8.10;99.90;;;;;;6740111;88;20612;-74
2021/05/06 18:47:37;;;;;;;6.87;3.08;;;8.10;99.90;;;;;;6741492;88;20184;-74
2021/05/06 18:57:38;;;;;;;7.85;3.55;;;8.00;99.90;;;;;;6742053;88;20678;-74
2021/05/06 19:07:38;;;;;;;9.50;4.65;;;8.20;99.90;;;;;;6740847;88;20590;-77
2021/05/06 19:17:40;;;;;;;6.30;3.90;;;8.20;99.90;;;;;;6740005;88;20641;-75
2021/05/06 19:27:40;;;;;;;6.47;3.78;;;8.10;99.90;;;;;;6739887;88;20242;-76
2021/05/06 19:37:41;;;;;;;7.15;3.83;;;7.90;99.90;;;;;;6738971;88;20229;-77
2021/05/06 19:47:41;;;;;;;6.75;3.90;;;7.80;99.90;;;;;;6738635;88;20225;-77
2021/05/06 19:57:42;;;;;;;5.03;3.60;;;7.90;99.90;;;;;;6734504;88;20990;-76
2021/05/06 20:07:43;;;;;;;10.13;4.07;;;8.00;99.90;;;;;;6729227;88;20246;-79
2021/05/06 20:17:44;;;;;;;7.60;3.80;;;7.90;99.90;;;;;;6728958;88;20515;-77
2021/05/06 20:27:45;;;;;;;5.57;3.58;;;7.80;99.90;;;;;;6727627;88;20162;-79
2021/05/06 20:37:45;;;;;;;6.80;3.85;;;7.80;99.90;;;;;;6730761;88;20657;-79
2021/05/06 20:47:46;;;;;;;8.02;4.07;;;7.80;99.90;;;;;;6729492;88;20218;-78
2021/05/06 20:57:48;;;;;;;6.57;4.00;;;7.70;99.90;;;;;;6728697;88;20181;-79
2021/05/06 21:07:51;;;;;;;6.70;4.50;;;7.70;99.90;;;;;;6725121;88;20217;-76
2021/05/06 21:17:52;;;;;;;9.52;5.50;;;7.60;99.90;;;;;;6726785;88;20196;-79
2021/05/06 21:27:53;;;;;;;9.02;5.80;;;7.60;99.90;;;;;;6735825;88;20182;-79
2021/05/06 21:37:53;;;;;;;8.63;5.10;;;7.60;99.90;;;;;;6738021;88;20693;-79
2021/05/06 21:47:54;;;;;;;7.62;5.70;;;7.60;99.90;;;;;;6736153;88;20232;-79
2021/05/06 21:57:54;;;;;;;8.50;5.43;;;7.50;99.90;;;;;;6742757;88;20271;-78
2021/05/06 22:07:55;;;;;;;8.35;5.10;;;7.50;99.90;;;;;;6730684;88;20188;-78
2021/05/06 22:17:56;;;;;;;9.93;6.18;;;7.50;99.90;;;;;;6735697;88;20224;-78
2021/05/06 22:27:56;;;;;;;11.23;5.72;;;7.40;99.90;;;;;;6744742;88;20178;-76
2021/05/06 22:37:58;;;;;;;9.70;6.00;;;7.50;99.90;;;;;;6726420;77;20205;-76
2021/05/06 22:47:58;;;;;;;19.37;11.43;;;7.40;99.90;;;;;;6717489;88;20182;-75
2021/05/06 22:58:03;;;;;;;27.27;16.20;;;7.20;99.90;;;;;;6716954;88;20677;-76
2021/05/06 23:08:03;;;;;;;22.65;15.52;;;6.70;99.90;;;;;;6717436;88;20270;-76
2021/05/06 23:18:04;;;;;;;25.75;14.90;;;6.40;99.90;;;;;;6717778;88;20584;-75
2021/05/06 23:28:05;;;;;;;22.60;13.87;;;5.80;99.90;;;;;;6716777;88;20263;-76
2021/05/06 23:38:05;;;;;;;21.75;13.48;;;5.70;99.90;;;;;;6717238;88;20479;-77
2021/05/06 23:48:06;;;;;;;23.05;15.02;;;5.60;99.90;;;;;;6719816;88;20221;-76
2021/05/06 23:58:06;;;;;;;25.10;15.27;;;5.60;99.90;;;;;;6716342;88;20191;-76
